createdAt,value
2017-09-22T00:00:24.572Z,11.32
2017-09-22T00:01:05.096Z,11.25
2017-09-22T00:01:45.629Z,11.27
2017-09-22T00:02:26.162Z,11.27
2017-09-22T00:03:06.693Z,11.25
2017-09-22T00:03:47.250Z,11.29
2017-09-22T00:04:27.789Z,11.33
2017-09-22T00:05:08.329Z,11.28
2017-09-22T00:05:48.885Z,11.29
2017-09-22T00:06:29.388Z,11.27
2017-09-22T00:07:09.926Z,11.33
2017-09-22T00:07:50.462Z,11.33
2017-09-22T00:08:30.983Z,11.35
2017-09-22T00:09:11.509Z,11.28
2017-09-22T00:09:52.097Z,11.37
2017-09-22T00:10:32.629Z,11.28
2017-09-22T00:11:13.166Z,11.35
2017-09-22T00:11:53.687Z,11.29
2017-09-22T00:12:34.223Z,11.35
2017-09-22T00:13:14.753Z,11.43
2017-09-22T00:13:55.282Z,11.35
2017-09-22T00:14:35.831Z,11.36
2017-09-22T00:15:16.363Z,11.37
2017-09-22T00:15:56.902Z,11.35
2017-09-22T00:16:37.442Z,11.4
2017-09-22T00:17:17.967Z,11.39
2017-09-22T00:17:58.492Z,11.35
2017-09-22T00:18:39.038Z,11.39
2017-09-22T00:19:19.570Z,11.36
2017-09-22T00:20:00.129Z,11.36
2017-09-22T00:20:40.665Z,11.37
2017-09-22T00:21:21.199Z,11.36
2017-09-22T00:22:01.739Z,11.35
2017-09-22T00:22:42.266Z,11.39
2017-09-22T00:23:22.812Z,11.33
2017-09-22T00:24:03.339Z,11.39
2017-09-22T00:24:43.874Z,11.42
2017-09-22T00:25:24.405Z,11.36
2017-09-22T00:26:04.947Z,11.43
2017-09-22T00:26:45.486Z,11.43
2017-09-22T00:27:26.016Z,11.42
2017-09-22T00:28:06.563Z,11.39
2017-09-22T00:28:47.084Z,11.44
2017-09-22T00:29:27.645Z,11.4
2017-09-22T00:30:08.210Z,11.43
2017-09-22T00:30:48.747Z,11.43
2017-09-22T00:31:29.264Z,11.36
2017-09-22T00:32:09.804Z,11.39
2017-09-22T00:32:50.342Z,11.39
2017-09-22T00:33:30.870Z,11.39
2017-09-22T00:34:11.405Z,11.39
2017-09-22T00:34:51.942Z,11.4
2017-09-22T00:35:32.467Z,11.4
2017-09-22T00:36:13.044Z,11.36
2017-09-22T00:36:53.580Z,11.39
2017-09-22T00:37:34.111Z,11.33
2017-09-22T00:38:14.642Z,11.36
2017-09-22T00:38:55.176Z,11.37
2017-09-22T00:39:35.706Z,11.39
2017-09-22T00:40:16.245Z,11.42
2017-09-22T00:40:56.781Z,11.39
2017-09-22T00:41:37.309Z,11.4
2017-09-22T00:42:17.840Z,11.44
2017-09-22T00:42:58.379Z,11.4
2017-09-22T00:43:38.919Z,11.4
2017-09-22T00:44:19.461Z,11.42
2017-09-22T00:45:00.000Z,11.42
2017-09-22T00:45:40.559Z,11.43
2017-09-22T00:46:21.101Z,11.42
2017-09-22T00:47:01.642Z,11.4
2017-09-22T00:47:42.214Z,11.4
2017-09-22T00:48:22.749Z,11.43
2017-09-22T00:49:03.286Z,11.4
2017-09-22T00:49:43.802Z,11.4
2017-09-22T00:50:24.349Z,11.43
2017-09-22T00:51:04.887Z,11.42
2017-09-22T00:51:45.417Z,11.37
2017-09-22T00:52:25.989Z,11.44
2017-09-22T00:53:06.517Z,11.33
2017-09-22T00:53:47.052Z,11.42
2017-09-22T00:54:27.601Z,11.37
2017-09-22T00:55:08.131Z,11.4
2017-09-22T00:55:48.667Z,11.37
2017-09-22T00:56:29.183Z,11.32
2017-09-22T00:57:09.719Z,11.33
2017-09-22T00:57:50.253Z,11.36
2017-09-22T00:58:30.784Z,11.35
2017-09-22T00:59:11.309Z,11.36
2017-09-22T00:59:51.842Z,11.29
2017-09-22T01:00:32.401Z,11.28
2017-09-22T01:01:12.951Z,11.33
2017-09-22T01:01:53.561Z,11.25
2017-09-22T01:02:34.098Z,11.33
2017-09-22T01:03:14.634Z,11.28
2017-09-22T01:03:55.174Z,11.19
2017-09-22T01:04:35.707Z,11.21
2017-09-22T01:05:16.247Z,11.19
2017-09-22T01:05:56.785Z,11.24
2017-09-22T01:06:37.312Z,11.17
2017-09-22T01:07:17.845Z,11.19
2017-09-22T01:07:58.377Z,11.19
2017-09-22T01:08:38.901Z,11.11
2017-09-22T01:09:19.435Z,11.09
2017-09-22T01:09:59.974Z,11.06
2017-09-22T01:10:40.512Z,11.15
2017-09-22T01:11:21.056Z,11.07
2017-09-22T01:12:01.611Z,11.19
2017-09-22T01:12:42.139Z,11.07
2017-09-22T01:13:22.669Z,11.09
2017-09-22T01:14:03.197Z,11.06
2017-09-22T01:14:43.734Z,11.03
2017-09-22T01:15:24.264Z,11.03
2017-09-22T01:16:04.800Z,10.96
2017-09-22T01:16:45.336Z,10.97
2017-09-22T01:17:25.872Z,11.03
2017-09-22T01:18:06.424Z,10.92
2017-09-22T01:18:46.938Z,10.94
2017-09-22T01:19:27.464Z,10.97
2017-09-22T01:20:07.994Z,10.92
2017-09-22T01:20:48.530Z,10.99
2017-09-22T01:21:29.057Z,10.92
2017-09-22T01:22:09.600Z,10.91
2017-09-22T01:22:50.114Z,10.86
2017-09-22T01:23:30.648Z,10.89
2017-09-22T01:24:11.198Z,10.85
2017-09-22T01:24:51.733Z,10.88
2017-09-22T01:25:32.263Z,10.88
2017-09-22T01:26:12.795Z,10.85
2017-09-22T01:26:53.344Z,10.86
2017-09-22T01:27:33.874Z,10.82
2017-09-22T01:28:14.421Z,10.91
2017-09-22T01:28:54.954Z,10.84
2017-09-22T01:29:35.491Z,10.84
2017-09-22T01:30:16.027Z,10.88
2017-09-22T01:30:56.560Z,10.89
2017-09-22T01:31:37.097Z,10.92
2017-09-22T01:32:17.630Z,10.86
2017-09-22T01:32:58.169Z,10.78
2017-09-22T01:33:38.706Z,10.81
2017-09-22T01:34:19.256Z,10.78
2017-09-22T01:34:59.791Z,10.81
2017-09-22T01:35:40.329Z,10.81
2017-09-22T01:36:20.872Z,10.81
2017-09-22T01:37:01.404Z,10.84
2017-09-22T01:37:41.942Z,10.82
2017-09-22T01:38:22.480Z,10.84
2017-09-22T01:39:03.020Z,10.81
2017-09-22T01:39:43.563Z,10.81
2017-09-22T01:40:24.101Z,10.78
2017-09-22T01:41:04.637Z,10.81
2017-09-22T01:41:45.156Z,10.84
2017-09-22T01:42:25.684Z,10.81
2017-09-22T01:43:06.221Z,10.82
2017-09-22T01:43:46.737Z,10.82
2017-09-22T01:44:27.289Z,10.81
2017-09-22T01:45:07.798Z,10.76
2017-09-22T01:45:48.336Z,10.88
2017-09-22T01:46:28.872Z,10.84
2017-09-22T01:47:09.403Z,10.79
2017-09-22T01:47:49.934Z,10.84
2017-09-22T01:48:30.467Z,10.89
2017-09-22T01:49:10.993Z,10.86
2017-09-22T01:49:51.531Z,10.82
2017-09-22T01:50:32.061Z,10.84
2017-09-22T01:51:12.596Z,10.88
2017-09-22T01:51:53.130Z,10.86
2017-09-22T01:52:33.655Z,10.76
2017-09-22T01:53:14.190Z,10.82
2017-09-22T01:53:54.718Z,10.81
2017-09-22T01:54:35.252Z,10.79
2017-09-22T01:55:15.785Z,10.82
2017-09-22T01:55:56.323Z,10.81
2017-09-22T01:56:36.853Z,10.78
2017-09-22T01:57:17.382Z,10.82
2017-09-22T01:57:57.918Z,10.78
2017-09-22T01:58:38.452Z,10.78
2017-09-22T01:59:18.995Z,10.79
2017-09-22T01:59:59.532Z,10.82
2017-09-22T02:00:40.070Z,10.86
2017-09-22T02:01:20.649Z,10.86
2017-09-22T02:02:01.205Z,10.78
2017-09-22T02:02:41.711Z,10.86
2017-09-22T02:03:22.247Z,10.7
2017-09-22T02:04:02.781Z,10.85
2017-09-22T02:04:43.315Z,10.88
2017-09-22T02:05:23.842Z,10.71
2017-09-22T02:06:04.364Z,10.74
2017-09-22T02:06:44.886Z,10.76
2017-09-22T02:07:25.431Z,10.78
2017-09-22T02:08:05.967Z,10.78
2017-09-22T02:08:46.501Z,10.85
2017-09-22T02:09:27.037Z,10.79
2017-09-22T02:10:07.559Z,10.82
2017-09-22T02:10:48.092Z,10.84
2017-09-22T02:11:28.656Z,10.68
2017-09-22T02:12:09.187Z,10.76
2017-09-22T02:12:49.723Z,10.73
2017-09-22T02:13:30.251Z,10.76
2017-09-22T02:14:10.793Z,10.73
2017-09-22T02:14:51.305Z,10.7
2017-09-22T02:15:31.841Z,10.76
2017-09-22T02:16:12.381Z,10.74
2017-09-22T02:16:52.906Z,10.71
2017-09-22T02:17:33.431Z,10.73
2017-09-22T02:18:13.998Z,10.71
2017-09-22T02:18:54.539Z,10.66
2017-09-22T02:19:35.171Z,10.7
2017-09-22T02:20:15.701Z,10.67
2017-09-22T02:20:56.230Z,10.67
2017-09-22T02:21:36.754Z,10.74
2017-09-22T02:22:17.288Z,10.68
2017-09-22T02:22:57.815Z,10.78
2017-09-22T02:23:38.349Z,10.73
2017-09-22T02:24:18.868Z,10.71
2017-09-22T02:24:59.407Z,10.7
2017-09-22T02:25:39.944Z,10.68
2017-09-22T02:26:20.482Z,10.74
2017-09-22T02:27:01.065Z,10.73
2017-09-22T02:27:41.596Z,10.71
2017-09-22T02:28:22.131Z,10.71
2017-09-22T02:29:02.664Z,10.63
2017-09-22T02:29:43.185Z,10.7
2017-09-22T02:30:23.697Z,10.66
2017-09-22T02:31:04.254Z,10.63
2017-09-22T02:31:44.774Z,10.68
2017-09-22T02:32:25.312Z,10.64
2017-09-22T02:33:05.852Z,10.63
2017-09-22T02:33:46.389Z,10.64
2017-09-22T02:34:26.921Z,10.63
2017-09-22T02:35:07.470Z,10.64
2017-09-22T02:35:48.002Z,10.61
2017-09-22T02:36:28.534Z,10.61
2017-09-22T02:37:09.056Z,10.56
2017-09-22T02:37:49.594Z,10.64
2017-09-22T02:38:30.123Z,10.59
2017-09-22T02:39:10.673Z,10.64
2017-09-22T02:39:51.206Z,10.64
2017-09-22T02:40:31.738Z,10.67
2017-09-22T02:41:12.296Z,10.67
2017-09-22T02:41:52.836Z,10.66
2017-09-22T02:42:33.385Z,10.64
2017-09-22T02:43:13.910Z,10.66
2017-09-22T02:43:54.450Z,10.63
2017-09-22T02:44:34.973Z,10.64
2017-09-22T02:45:15.509Z,10.6
2017-09-22T02:45:56.049Z,10.53
2017-09-22T02:46:36.569Z,10.56
2017-09-22T02:47:17.095Z,10.52
2017-09-22T02:47:57.660Z,10.47
2017-09-22T02:48:38.181Z,10.48
2017-09-22T02:49:18.721Z,10.52
2017-09-22T02:49:59.254Z,10.55
2017-09-22T02:50:39.790Z,10.51
2017-09-22T02:51:20.324Z,10.52
2017-09-22T02:52:00.857Z,10.42
2017-09-22T02:52:41.384Z,10.41
2017-09-22T02:53:21.913Z,10.41
2017-09-22T02:54:02.446Z,10.41
2017-09-22T02:54:43.015Z,10.42
2017-09-22T02:55:23.508Z,10.4
2017-09-22T02:56:04.044Z,10.38
2017-09-22T02:56:44.574Z,10.41
2017-09-22T02:57:25.107Z,10.42
2017-09-22T02:58:05.644Z,10.34
2017-09-22T02:58:46.194Z,10.41
2017-09-22T02:59:26.722Z,10.41
2017-09-22T03:00:07.244Z,10.45
2017-09-22T03:00:47.783Z,10.38
2017-09-22T03:01:28.308Z,10.41
2017-09-22T03:02:08.831Z,10.36
2017-09-22T03:02:49.369Z,10.34
2017-09-22T03:03:29.901Z,10.41
2017-09-22T03:04:10.425Z,10.42
2017-09-22T03:04:50.969Z,10.41
2017-09-22T03:05:31.495Z,10.4
2017-09-22T03:06:12.035Z,10.38
2017-09-22T03:06:52.577Z,10.38
2017-09-22T03:07:33.204Z,10.36
2017-09-22T03:08:13.726Z,10.38
2017-09-22T03:08:54.264Z,10.34
2017-09-22T03:09:34.805Z,10.38
2017-09-22T03:10:15.341Z,10.36
2017-09-22T03:10:55.877Z,10.41
2017-09-22T03:11:36.413Z,10.34
2017-09-22T03:12:16.936Z,10.38
2017-09-22T03:12:57.501Z,10.38
2017-09-22T03:13:38.052Z,10.33
2017-09-22T03:14:18.608Z,10.34
2017-09-22T03:14:59.146Z,10.34
2017-09-22T03:15:39.672Z,10.4
2017-09-22T03:16:20.212Z,10.32
2017-09-22T03:17:00.746Z,10.3
2017-09-22T03:17:41.316Z,10.33
2017-09-22T03:18:21.852Z,10.26
2017-09-22T03:19:02.424Z,10.32
2017-09-22T03:19:42.967Z,10.3
2017-09-22T03:20:23.515Z,10.3
2017-09-22T03:21:04.045Z,10.32
2017-09-22T03:21:44.612Z,10.26
2017-09-22T03:22:25.146Z,10.3
2017-09-22T03:23:05.677Z,10.3
2017-09-22T03:23:46.207Z,10.32
2017-09-22T03:24:26.727Z,10.34
2017-09-22T03:25:07.275Z,10.25
2017-09-22T03:25:47.809Z,10.27
2017-09-22T03:26:28.358Z,10.27
2017-09-22T03:27:08.887Z,10.27
2017-09-22T03:27:49.414Z,10.29
2017-09-22T03:28:30.025Z,10.26
2017-09-22T03:29:10.580Z,10.29
2017-09-22T03:29:51.112Z,10.23
2017-09-22T03:30:31.637Z,10.33
2017-09-22T03:31:12.173Z,10.26
2017-09-22T03:31:52.700Z,10.26
2017-09-22T03:32:33.212Z,10.27
2017-09-22T03:33:13.757Z,10.27
2017-09-22T03:33:54.302Z,10.29
2017-09-22T03:34:34.851Z,10.26
2017-09-22T03:35:15.393Z,10.25
2017-09-22T03:35:55.925Z,10.22
2017-09-22T03:36:36.480Z,10.22
2017-09-22T03:37:16.984Z,10.2
2017-09-22T03:37:57.513Z,10.2
2017-09-22T03:38:38.074Z,10.23
2017-09-22T03:39:18.604Z,10.23
2017-09-22T03:39:59.124Z,10.25
2017-09-22T03:40:39.656Z,10.23
2017-09-22T03:41:20.185Z,10.2
2017-09-22T03:42:00.723Z,10.22
2017-09-22T03:42:41.265Z,10.17
2017-09-22T03:43:21.795Z,10.23
2017-09-22T03:44:02.332Z,10.08
2017-09-22T03:44:42.863Z,10.09
2017-09-22T03:45:23.392Z,10.14
2017-09-22T03:46:03.916Z,10.14
2017-09-22T03:46:44.433Z,10.15
2017-09-22T03:47:24.966Z,10.07
2017-09-22T03:48:05.481Z,10.15
2017-09-22T03:48:46.014Z,10.14
2017-09-22T03:49:26.542Z,10.15
2017-09-22T03:50:07.066Z,10.08
2017-09-22T03:50:47.613Z,10.17
2017-09-22T03:51:28.133Z,10.04
2017-09-22T03:52:08.668Z,10.02
2017-09-22T03:52:49.190Z,10.09
2017-09-22T03:53:29.723Z,10.08
2017-09-22T03:54:10.243Z,10.12
2017-09-22T03:54:50.774Z,10.01
2017-09-22T03:55:31.296Z,10.12
2017-09-22T03:56:11.824Z,10.11
2017-09-22T03:56:52.345Z,10.09
2017-09-22T03:57:32.879Z,10.05
2017-09-22T03:58:13.388Z,10.08
2017-09-22T03:58:53.917Z,10.08
2017-09-22T03:59:34.450Z,10.02
2017-09-22T04:00:14.975Z,10.11
2017-09-22T04:00:55.506Z,10.01
2017-09-22T04:01:36.040Z,10.02
2017-09-22T04:02:16.581Z,10.07
2017-09-22T04:02:57.108Z,10.08
2017-09-22T04:03:37.648Z,10.05
2017-09-22T04:04:18.182Z,10.04
2017-09-22T04:04:58.718Z,10.02
2017-09-22T04:05:39.242Z,10.07
2017-09-22T04:06:19.773Z,10.02
2017-09-22T04:07:00.303Z,10.05
2017-09-22T04:07:40.816Z,10.02
2017-09-22T04:08:21.334Z,10.02
2017-09-22T04:09:01.875Z,10.07
2017-09-22T04:09:42.477Z,10.04
2017-09-22T04:10:22.950Z,10.07
2017-09-22T04:11:03.467Z,10.07
2017-09-22T04:11:43.989Z,10.01
2017-09-22T04:12:24.517Z,9.97
2017-09-22T04:13:05.048Z,10.02
2017-09-22T04:13:45.580Z,10.04
2017-09-22T04:14:26.112Z,10.05
2017-09-22T04:15:06.645Z,9.99
2017-09-22T04:15:47.178Z,10.02
2017-09-22T04:16:29.208Z,9.97
2017-09-22T04:17:11.873Z,9.91
2017-09-22T04:17:53.911Z,9.9
2017-09-22T04:18:36.490Z,9.9
2017-09-22T04:19:18.915Z,9.89
2017-09-22T04:19:59.841Z,9.9
2017-09-22T04:20:40.369Z,10.01
2017-09-22T04:21:20.905Z,10.02
2017-09-22T04:22:01.444Z,10.07
2017-09-22T04:22:41.980Z,9.87
2017-09-22T04:23:22.505Z,9.89
2017-09-22T04:24:03.030Z,9.89
2017-09-22T04:24:43.573Z,9.89
2017-09-22T04:25:24.105Z,9.97
2017-09-22T04:26:04.636Z,9.97
2017-09-22T04:26:45.169Z,9.99
2017-09-22T04:27:25.691Z,10.01
2017-09-22T04:28:06.210Z,9.97
2017-09-22T04:28:46.746Z,9.89
2017-09-22T04:29:27.287Z,9.94
2017-09-22T04:30:07.825Z,9.93
2017-09-22T04:30:48.361Z,9.99
2017-09-22T04:31:30.025Z,9.91
2017-09-22T04:32:12.144Z,9.97
2017-09-22T04:32:54.398Z,9.94
2017-09-22T04:33:36.836Z,9.97
2017-09-22T04:34:18.134Z,9.96
2017-09-22T04:34:58.672Z,9.93
2017-09-22T04:35:39.209Z,9.9
2017-09-22T04:36:19.721Z,9.9
2017-09-22T04:37:00.249Z,9.96
2017-09-22T04:37:40.779Z,9.87
2017-09-22T04:38:21.311Z,9.96
2017-09-22T04:39:01.847Z,9.96
2017-09-22T04:39:42.381Z,9.91
2017-09-22T04:40:22.907Z,9.89
2017-09-22T04:41:03.434Z,9.87
2017-09-22T04:41:43.961Z,9.9
2017-09-22T04:42:24.487Z,9.99
2017-09-22T04:43:05.012Z,9.94
2017-09-22T04:43:45.527Z,9.99
2017-09-22T04:44:26.062Z,9.99
2017-09-22T04:45:06.589Z,9.94
2017-09-22T04:45:47.114Z,9.9
2017-09-22T04:46:27.645Z,9.99
2017-09-22T04:47:08.163Z,9.97
2017-09-22T04:47:48.854Z,9.87
2017-09-22T04:48:30.667Z,9.9
2017-09-22T04:49:11.608Z,9.94
2017-09-22T04:49:52.115Z,9.97
2017-09-22T04:50:32.661Z,9.97
2017-09-22T04:51:13.193Z,9.89
2017-09-22T04:51:53.728Z,9.93
2017-09-22T04:52:34.254Z,9.94
2017-09-22T04:53:14.785Z,9.96
2017-09-22T04:53:55.316Z,9.96
2017-09-22T04:54:35.862Z,9.89
2017-09-22T04:55:16.397Z,9.89
2017-09-22T04:55:56.939Z,9.86
2017-09-22T04:56:37.465Z,9.87
2017-09-22T04:57:18.016Z,9.91
2017-09-22T04:57:58.542Z,9.84
2017-09-22T04:58:39.074Z,9.89
2017-09-22T04:59:19.603Z,9.87
2017-09-22T05:00:00.142Z,9.87
2017-09-22T05:00:40.680Z,9.83
2017-09-22T05:01:21.209Z,9.89
2017-09-22T05:02:01.748Z,9.89
2017-09-22T05:02:42.266Z,9.76
2017-09-22T05:03:22.805Z,9.86
2017-09-22T05:04:03.344Z,9.9
2017-09-22T05:04:43.930Z,9.79
2017-09-22T05:05:24.594Z,9.76
2017-09-22T05:06:05.125Z,9.81
2017-09-22T05:06:45.663Z,9.74
2017-09-22T05:07:26.202Z,9.79
2017-09-22T05:08:06.750Z,9.83
2017-09-22T05:08:47.270Z,9.78
2017-09-22T05:09:27.803Z,9.76
2017-09-22T05:10:08.330Z,9.81
2017-09-22T05:10:48.871Z,9.89
2017-09-22T05:11:29.406Z,9.79
2017-09-22T05:12:09.934Z,9.78
2017-09-22T05:12:50.453Z,9.79
2017-09-22T05:13:30.989Z,9.83
2017-09-22T05:14:11.529Z,9.9
2017-09-22T05:14:52.065Z,9.89
2017-09-22T05:15:32.589Z,9.78
2017-09-22T05:16:13.118Z,9.83
2017-09-22T05:16:53.654Z,9.78
2017-09-22T05:17:34.185Z,9.84
2017-09-22T05:18:14.714Z,9.86
2017-09-22T05:18:55.262Z,9.89
2017-09-22T05:19:35.765Z,9.89
2017-09-22T05:20:16.283Z,9.78
2017-09-22T05:20:56.817Z,9.79
2017-09-22T05:21:37.352Z,9.91
2017-09-22T05:22:17.877Z,9.89
2017-09-22T05:22:58.415Z,9.86
2017-09-22T05:23:38.947Z,9.87
2017-09-22T05:24:19.576Z,9.9
2017-09-22T05:25:00.155Z,9.93
2017-09-22T05:25:40.662Z,9.9
2017-09-22T05:26:21.183Z,9.89
2017-09-22T05:27:01.719Z,9.84
2017-09-22T05:27:42.253Z,9.89
2017-09-22T05:28:22.854Z,9.86
2017-09-22T05:29:03.383Z,9.9
2017-09-22T05:29:43.918Z,9.91
2017-09-22T05:30:24.452Z,9.87
2017-09-22T05:31:04.988Z,9.91
2017-09-22T05:31:45.525Z,9.93
2017-09-22T05:32:26.061Z,9.91
2017-09-22T05:33:06.603Z,9.96
2017-09-22T05:33:47.136Z,9.94
2017-09-22T05:34:27.670Z,9.96
2017-09-22T05:35:08.202Z,9.97
2017-09-22T05:35:48.741Z,9.9
2017-09-22T05:36:29.268Z,9.94
2017-09-22T05:37:09.793Z,9.93
2017-09-22T05:37:50.321Z,9.99
2017-09-22T05:38:30.856Z,9.93
2017-09-22T05:39:11.388Z,10.07
2017-09-22T05:39:51.926Z,9.94
2017-09-22T05:40:32.453Z,9.9
2017-09-22T05:41:12.987Z,9.99
2017-09-22T05:41:53.517Z,9.99
2017-09-22T05:42:34.052Z,9.97
2017-09-22T05:43:14.591Z,10.02
2017-09-22T05:43:55.119Z,10.08
2017-09-22T05:44:35.650Z,10.05
2017-09-22T05:45:16.179Z,10.04
2017-09-22T05:45:56.698Z,10.01
2017-09-22T05:46:37.238Z,10.04
2017-09-22T05:47:17.769Z,9.99
2017-09-22T05:47:58.381Z,10.04
2017-09-22T05:48:38.917Z,10.04
2017-09-22T05:49:19.447Z,10.05
2017-09-22T05:50:00.010Z,10.02
2017-09-22T05:50:40.544Z,10.04
2017-09-22T05:51:21.076Z,10.04
2017-09-22T05:52:01.608Z,10.11
2017-09-22T05:52:42.144Z,10.04
2017-09-22T05:53:22.677Z,10.04
2017-09-22T05:54:03.197Z,10.11
2017-09-22T05:54:43.731Z,10.12
2017-09-22T05:55:24.257Z,10.05
2017-09-22T05:56:04.836Z,10.15
2017-09-22T05:56:45.358Z,10.01
2017-09-22T05:57:25.863Z,10.01
2017-09-22T05:58:06.363Z,10.07
2017-09-22T05:58:46.888Z,10.07
2017-09-22T05:59:27.430Z,10.09
2017-09-22T06:00:07.962Z,10.04
2017-09-22T06:00:48.499Z,10.05
2017-09-22T06:01:29.031Z,10.14
2017-09-22T06:02:09.562Z,10.04
2017-09-22T06:02:50.093Z,10.17
2017-09-22T06:03:30.619Z,10.08
2017-09-22T06:04:11.143Z,10.12
2017-09-22T06:04:51.684Z,10.09
2017-09-22T06:05:32.207Z,10.15
2017-09-22T06:06:12.736Z,10.15
2017-09-22T06:06:53.259Z,10.17
2017-09-22T06:07:33.770Z,10.15
2017-09-22T06:08:14.297Z,10.12
2017-09-22T06:08:54.837Z,10.14
2017-09-22T06:09:35.372Z,10.2
2017-09-22T06:10:15.947Z,10.17
2017-09-22T06:10:56.473Z,10.2
2017-09-22T06:11:37.002Z,10.25
2017-09-22T06:12:17.529Z,10.26
2017-09-22T06:12:58.117Z,10.2
2017-09-22T06:13:38.585Z,10.22
2017-09-22T06:14:19.119Z,10.27
2017-09-22T06:14:59.621Z,10.3
2017-09-22T06:15:40.147Z,10.26
2017-09-22T06:16:20.679Z,10.26
2017-09-22T06:17:01.192Z,10.32
2017-09-22T06:17:41.716Z,10.3
2017-09-22T06:18:22.224Z,10.34
2017-09-22T06:19:02.753Z,10.27
2017-09-22T06:19:43.262Z,10.36
2017-09-22T06:20:23.791Z,10.25
2017-09-22T06:21:04.327Z,10.32
2017-09-22T06:21:44.866Z,10.34
2017-09-22T06:22:25.406Z,10.36
2017-09-22T06:23:05.938Z,10.38
2017-09-22T06:23:46.466Z,10.42
2017-09-22T06:24:27.060Z,10.38
2017-09-22T06:25:07.583Z,10.42
2017-09-22T06:25:48.125Z,10.4
2017-09-22T06:26:28.647Z,10.38
2017-09-22T06:27:09.173Z,10.36
2017-09-22T06:27:49.711Z,10.41
2017-09-22T06:28:30.240Z,10.42
2017-09-22T06:29:10.767Z,10.42
2017-09-22T06:29:51.303Z,10.45
2017-09-22T06:30:31.835Z,10.36
2017-09-22T06:31:12.364Z,10.38
2017-09-22T06:31:52.894Z,10.36
2017-09-22T06:32:33.441Z,10.47
2017-09-22T06:33:13.972Z,10.42
2017-09-22T06:33:54.511Z,10.55
2017-09-22T06:34:35.042Z,10.48
2017-09-22T06:35:15.576Z,10.42
2017-09-22T06:35:56.118Z,10.53
2017-09-22T06:36:36.641Z,10.52
2017-09-22T06:37:17.175Z,10.51
2017-09-22T06:37:57.713Z,10.48
2017-09-22T06:38:38.248Z,10.53
2017-09-22T06:39:18.784Z,10.47
2017-09-22T06:39:59.318Z,10.48
2017-09-22T06:40:39.857Z,10.61
2017-09-22T06:41:20.386Z,10.59
2017-09-22T06:42:00.923Z,10.66
2017-09-22T06:42:41.456Z,10.67
2017-09-22T06:43:21.994Z,10.61
2017-09-22T06:44:02.525Z,10.6
2017-09-22T06:44:43.065Z,10.66
2017-09-22T06:45:23.596Z,10.61
2017-09-22T06:46:04.160Z,10.63
2017-09-22T06:46:44.690Z,10.64
2017-09-22T06:47:25.229Z,10.63
2017-09-22T06:48:05.763Z,10.64
2017-09-22T06:48:46.302Z,10.73
2017-09-22T06:49:26.859Z,10.73
2017-09-22T06:50:07.396Z,10.71
2017-09-22T06:50:47.915Z,10.73
2017-09-22T06:51:28.469Z,10.78
2017-09-22T06:52:08.972Z,10.76
2017-09-22T06:52:49.508Z,10.76
2017-09-22T06:53:30.042Z,10.73
2017-09-22T06:54:10.563Z,10.74
2017-09-22T06:54:51.087Z,10.81
2017-09-22T06:55:31.625Z,10.76
2017-09-22T06:56:12.158Z,10.79
2017-09-22T06:56:52.686Z,10.84
2017-09-22T06:57:33.223Z,10.81
2017-09-22T06:58:13.762Z,10.88
2017-09-22T06:58:54.299Z,10.86
2017-09-22T06:59:34.830Z,10.89
2017-09-22T07:00:15.373Z,10.88
2017-09-22T07:00:55.908Z,10.85
2017-09-22T07:01:36.444Z,10.84
2017-09-22T07:02:16.967Z,10.82
2017-09-22T07:02:57.483Z,10.85
2017-09-22T07:03:38.022Z,10.88
2017-09-22T07:04:18.559Z,10.88
2017-09-22T07:04:59.091Z,10.94
2017-09-22T07:05:39.625Z,10.92
2017-09-22T07:06:20.155Z,10.99
2017-09-22T07:07:00.677Z,10.99
2017-09-22T07:07:41.214Z,10.92
2017-09-22T07:08:21.753Z,10.97
2017-09-22T07:09:02.292Z,11
2017-09-22T07:09:42.820Z,11.03
2017-09-22T07:10:23.339Z,10.94
2017-09-22T07:11:03.866Z,11.03
2017-09-22T07:11:44.399Z,11.06
2017-09-22T07:12:24.920Z,11.03
2017-09-22T07:13:05.452Z,11.1
2017-09-22T07:13:46.053Z,11.14
2017-09-22T07:14:26.600Z,11.17
2017-09-22T07:15:07.131Z,11.15
2017-09-22T07:15:47.670Z,11.14
2017-09-22T07:16:28.207Z,11.09
2017-09-22T07:17:08.743Z,11.17
2017-09-22T07:17:49.268Z,11.17
2017-09-22T07:18:29.793Z,11.19
2017-09-22T07:19:10.328Z,11.29
2017-09-22T07:19:50.849Z,11.25
2017-09-22T07:20:31.394Z,11.32
2017-09-22T07:21:11.925Z,11.33
2017-09-22T07:21:52.459Z,11.33
2017-09-22T07:22:32.970Z,11.33
2017-09-22T07:23:13.503Z,11.37
2017-09-22T07:23:54.033Z,11.42
2017-09-22T07:24:34.578Z,11.37
2017-09-22T07:25:15.109Z,11.49
2017-09-22T07:25:55.701Z,11.49
2017-09-22T07:26:36.207Z,11.52
2017-09-22T07:27:16.743Z,11.52
2017-09-22T07:27:57.276Z,11.57
2017-09-22T07:28:37.815Z,11.67
2017-09-22T07:29:18.350Z,11.69
2017-09-22T07:29:58.866Z,11.76
2017-09-22T07:30:39.405Z,11.73
2017-09-22T07:31:19.934Z,11.67
2017-09-22T07:32:00.470Z,11.8
2017-09-22T07:32:40.989Z,11.79
2017-09-22T07:33:21.513Z,11.86
2017-09-22T07:34:02.047Z,11.72
2017-09-22T07:34:42.578Z,11.83
2017-09-22T07:35:23.107Z,11.83
2017-09-22T07:36:03.634Z,11.94
2017-09-22T07:36:44.168Z,11.86
2017-09-22T07:37:24.687Z,11.91
2017-09-22T07:38:05.207Z,11.88
2017-09-22T07:38:45.752Z,12.04
2017-09-22T07:39:26.262Z,11.96
2017-09-22T07:40:06.786Z,12.09
2017-09-22T07:40:47.322Z,11.98
2017-09-22T07:41:27.850Z,12.13
2017-09-22T07:42:08.381Z,12.19
2017-09-22T07:42:48.914Z,12.21
2017-09-22T07:43:29.448Z,12.17
2017-09-22T07:44:09.982Z,12.16
2017-09-22T07:44:50.522Z,12.24
2017-09-22T07:45:31.066Z,12.23
2017-09-22T07:46:11.594Z,12.35
2017-09-22T07:46:52.131Z,12.32
2017-09-22T07:47:32.668Z,12.37
2017-09-22T07:48:13.208Z,12.37
2017-09-22T07:48:53.738Z,12.38
2017-09-22T07:49:34.276Z,12.42
2017-09-22T07:50:14.804Z,12.5
2017-09-22T07:50:55.338Z,12.42
2017-09-22T07:51:35.885Z,12.42
2017-09-22T07:52:16.423Z,12.5
2017-09-22T07:52:56.957Z,12.59
2017-09-22T07:53:37.492Z,12.6
2017-09-22T07:54:18.030Z,12.59
2017-09-22T07:54:58.568Z,12.68
2017-09-22T07:55:39.104Z,12.71
2017-09-22T07:56:19.637Z,12.71
2017-09-22T07:57:00.185Z,12.79
2017-09-22T07:57:40.728Z,12.85
2017-09-22T07:58:21.247Z,12.87
2017-09-22T07:59:01.770Z,12.78
2017-09-22T07:59:42.304Z,12.93
2017-09-22T08:00:22.815Z,12.93
2017-09-22T08:01:03.343Z,12.93
2017-09-22T08:01:43.873Z,12.97
2017-09-22T08:02:24.398Z,13.03
2017-09-22T08:03:04.922Z,13.01
2017-09-22T08:03:45.428Z,13.12
2017-09-22T08:04:25.943Z,13.15
2017-09-22T08:05:06.466Z,13.11
2017-09-22T08:05:47.012Z,13.23
2017-09-22T08:06:27.526Z,13.25
2017-09-22T08:07:08.046Z,13.23
2017-09-22T08:07:48.548Z,13.23
2017-09-22T08:08:29.081Z,13.26
2017-09-22T08:09:09.603Z,13.3
2017-09-22T08:09:50.131Z,13.42
2017-09-22T08:10:30.664Z,13.42
2017-09-22T08:11:11.197Z,13.59
2017-09-22T08:11:51.699Z,13.52
2017-09-22T08:12:32.233Z,13.6
2017-09-22T08:13:12.742Z,13.63
2017-09-22T08:13:53.269Z,13.66
2017-09-22T08:14:33.801Z,13.69
2017-09-22T08:15:14.327Z,13.67
2017-09-22T08:15:54.856Z,13.66
2017-09-22T08:16:35.368Z,13.81
2017-09-22T08:17:15.908Z,13.82
2017-09-22T08:17:56.440Z,13.79
2017-09-22T08:18:36.958Z,13.84
2017-09-22T08:19:17.470Z,13.88
2017-09-22T08:19:57.986Z,13.81
2017-09-22T08:20:38.481Z,13.87
2017-09-22T08:21:18.999Z,13.89
2017-09-22T08:21:59.518Z,13.97
2017-09-22T08:22:40.029Z,13.97
2017-09-22T08:23:20.546Z,14.09
2017-09-22T08:24:01.063Z,14.04
2017-09-22T08:24:41.582Z,14.12
2017-09-22T08:25:22.092Z,14.24
2017-09-22T08:26:02.602Z,14.18
2017-09-22T08:26:43.112Z,14.15
2017-09-22T08:27:23.623Z,14.32
2017-09-22T08:28:04.147Z,14.32
2017-09-22T08:28:44.682Z,14.35
2017-09-22T08:29:25.209Z,14.42
2017-09-22T08:30:05.702Z,14.46
2017-09-22T08:30:46.235Z,14.52
2017-09-22T08:31:26.739Z,14.5
2017-09-22T08:32:07.254Z,14.52
2017-09-22T08:32:47.781Z,14.57
2017-09-22T08:33:28.302Z,14.55
2017-09-22T08:34:08.810Z,14.57
2017-09-22T08:34:49.343Z,14.65
2017-09-22T08:35:29.875Z,14.64
2017-09-22T08:36:10.465Z,14.64
2017-09-22T08:36:51.006Z,14.72
2017-09-22T08:37:31.526Z,14.8
2017-09-22T08:38:12.064Z,14.8
2017-09-22T08:38:52.588Z,14.77
2017-09-22T08:39:33.097Z,14.84
2017-09-22T08:40:13.612Z,14.91
2017-09-22T08:40:54.128Z,14.86
2017-09-22T08:41:34.642Z,14.95
2017-09-22T08:42:15.173Z,14.98
2017-09-22T08:42:55.681Z,14.98
2017-09-22T08:43:36.230Z,14.94
2017-09-22T08:44:16.752Z,14.92
2017-09-22T08:44:57.266Z,15.01
2017-09-22T08:45:37.796Z,14.96
2017-09-22T08:46:18.304Z,14.95